Terminal Aerodrome Forecast
Issued by NWS

Current Version | Previous Version | Text Only | Print | Product List | Glossary Off
Versions: 1 2 3 4 5 6 7 8 9 10 11 12 13 14 15 16 17 18 19 20 21 22

000
FTUS41 KPBZ 192000 AAA
TAFHLG
TAF AMD
KHLG 192002Z 1920/2018 16008KT 5SM -DZ BR SCT015 OVC030
      TEMPO 1920/1922 1SM -DZ BR OVC015
     FM200800 18003KT 3SM BR BKN030
     FM201400 19005KT P6SM BKN035=

USA.gov is the U.S. government's official web portal to all federal, state and local government web resources and services.